Terminal Aerodrome Forecast
Issued by NWS

Home | Current Version | Previous Version | Text Only | Print | Product List | Glossary On
Versions: 1 2 3 4 5 6 7 8 9 10 11 12
907
FTUS44 KTSA 081740
TAFFYV
TAF
KFYV 081740Z 0818/0918 31020G30KT P6SM BKN050
     FM090200 30012KT P6SM SCT050
     FM091500 32014G23KT P6SM SKC=

USA.gov is the U.S. government's official web portal to all federal, state and local government web resources and services.